Terminal Aerodrome Forecast
Issued by NWS

Home | Current Version | Previous Version | Text Only | Print | Product List | Glossary On
Versions: 1 2 3 4 5 6 7 8 9 10 11 12 13 14 15 16 17 18 19 20 21
000
FTUS43 KABR 280205 AAA
TAFATY
TAF AMD
KATY 280205Z 2802/2824 VRB05KT P6SM BKN120
     FM280500 VRB04KT P6SM -SHSN OVC070
     FM280900 03008KT P6SM OVC025
     FM281300 02012KT 5SM -SN OVC015
     FM281500 01012KT P6SM OVC010
     FM282200 01012G19KT P6SM BKN015=

USA.gov is the U.S. government's official web portal to all federal, state and local government web resources and services.